createdAt,value
2019-02-05T00:02:15.945Z,102174.98
2019-02-05T00:04:46.204Z,102177.81
2019-02-05T00:07:16.692Z,102172.55
2019-02-05T00:09:47.162Z,102175.22
2019-02-05T00:12:17.714Z,102179.33
2019-02-05T00:14:48.098Z,102186.86
2019-02-05T00:17:18.633Z,102186.41
2019-02-05T00:19:48.906Z,102183.13
2019-02-05T00:22:19.200Z,102179.83
2019-02-05T00:24:49.480Z,102179.95
2019-02-05T00:27:19.737Z,102183.69
2019-02-05T00:29:50.073Z,102187.63
2019-02-05T00:32:20.621Z,102185.11
2019-02-05T00:34:50.890Z,102187.99
2019-02-05T00:37:21.605Z,102196.33
2019-02-05T00:39:51.906Z,102197.09
2019-02-05T00:42:22.489Z,102199.92
2019-02-05T00:44:52.765Z,102205.75
2019-02-05T00:47:23.005Z,102203.09
2019-02-05T00:49:53.355Z,102199.60
2019-02-05T00:52:23.609Z,102197.66
2019-02-05T00:54:53.886Z,102202.25
2019-02-05T00:57:24.249Z,102203.45
2019-02-05T00:59:54.741Z,102205.33
2019-02-05T01:02:24.998Z,102203.64
2019-02-05T01:04:55.595Z,102204.22
2019-02-05T01:07:26.141Z,102208.98
2019-02-05T01:09:56.525Z,102199.61
2019-02-05T01:12:27.209Z,102196.83
2019-02-05T01:14:57.783Z,102204.41
2019-02-05T01:17:29.548Z,102201.64
2019-02-05T01:20:00.096Z,102203.97
2019-02-05T01:22:30.443Z,102199.09
2019-02-05T01:25:00.758Z,102199.59
2019-02-05T01:27:31.319Z,102194.55
2019-02-05T01:30:01.577Z,102202.09
2019-02-05T01:32:31.798Z,102192.82
2019-02-05T01:35:02.081Z,102198.16
2019-02-05T01:37:32.347Z,102187.80
2019-02-05T01:40:03.059Z,102187.55
2019-02-05T01:42:33.331Z,102192.69
2019-02-05T01:45:04.250Z,102185.16
2019-02-05T01:47:34.745Z,102192.80
2019-02-05T01:50:05.883Z,102196.20
2019-02-05T01:52:36.169Z,102196.81
2019-02-05T01:55:09.030Z,102195.27
2019-02-05T01:57:39.699Z,102203.17
2019-02-05T02:00:14.615Z,102197.11
2019-02-05T02:02:45.155Z,102201.53
2019-02-05T02:05:15.560Z,102199.27
2019-02-05T02:07:45.907Z,102207.98
2019-02-05T02:10:22.989Z,102209.37
2019-02-05T02:12:53.404Z,102224.08
2019-02-05T02:15:23.671Z,102226.98
2019-02-05T02:17:54.226Z,102222.22
2019-02-05T02:20:24.808Z,102230.72
2019-02-05T02:22:55.743Z,102230.31
2019-02-05T02:25:26.217Z,102224.08
2019-02-05T02:27:56.786Z,102218.90
2019-02-05T02:30:33.794Z,102218.33
2019-02-05T02:33:04.143Z,102219.76
2019-02-05T02:35:34.771Z,102217.02
2019-02-05T02:38:05.477Z,102216.12
2019-02-05T02:40:36.175Z,102217.68
2019-02-05T02:43:06.524Z,102222.32
2019-02-05T02:45:36.861Z,102222.68
2019-02-05T02:48:07.172Z,102226.52
2019-02-05T02:50:37.407Z,102228.73
2019-02-05T02:53:08.010Z,102225.91
2019-02-05T02:55:38.258Z,102226.04
2019-02-05T02:58:08.532Z,102221.59
2019-02-05T03:00:38.868Z,102222.20
2019-02-05T03:03:09.555Z,102221.03
2019-02-05T03:05:39.811Z,102224.88
2019-02-05T03:08:10.162Z,102222.69
2019-02-05T03:10:40.441Z,102217.64
2019-02-05T03:13:11.001Z,102221.57
2019-02-05T03:15:41.693Z,102220.41
2019-02-05T03:18:16.272Z,102223.61
2019-02-05T03:20:46.530Z,102220.81
2019-02-05T03:23:16.833Z,102219.80
2019-02-05T03:25:47.063Z,102225.66
2019-02-05T03:28:17.350Z,102228.75
2019-02-05T03:30:47.649Z,102221.53
2019-02-05T03:33:17.917Z,102223.94
2019-02-05T03:35:48.229Z,102225.59
2019-02-05T03:38:18.560Z,102221.16
2019-02-05T03:41:08.610Z,102222.22
2019-02-05T03:43:45.183Z,102222.02
2019-02-05T03:46:17.209Z,102227.13
2019-02-05T03:48:49.733Z,102233.91
2019-02-05T03:52:05.781Z,102229.55
2019-02-05T03:55:57.451Z,102233.03
2019-02-05T03:59:08.449Z,102242.63
2019-02-05T04:02:54.277Z,102244.61
2019-02-05T04:06:12.815Z,102237.38
2019-02-05T04:09:47.505Z,102241.62
2019-02-05T04:13:12.794Z,102237.05
2019-02-05T04:16:30.193Z,102250.06
2019-02-05T04:19:33.244Z,102252.33
2019-02-05T04:23:00.628Z,102247.05
2019-02-05T04:26:13.456Z,102250.97
2019-02-05T04:29:59.396Z,102251.41
2019-02-05T04:33:08.994Z,102256.30
2019-02-05T04:36:17.397Z,102252.28
2019-02-05T04:39:47.126Z,102270.41
2019-02-05T04:43:02.919Z,102261.17
2019-02-05T04:46:40.196Z,102267.49
2019-02-05T04:50:38.406Z,102265.83
2019-02-05T04:53:48.412Z,102271.50
2019-02-05T04:57:19.553Z,102270.70
2019-02-05T05:00:37.672Z,102275.11
2019-02-05T05:03:50.937Z,102273.02
2019-02-05T05:07:08.164Z,102277.70
2019-02-05T05:09:58.922Z,102286.17
2019-02-05T05:12:32.841Z,102281.36
2019-02-05T05:15:04.592Z,102284.06
2019-02-05T05:17:34.966Z,102277.62
2019-02-05T05:20:07.348Z,102284.59
2019-02-05T05:22:38.522Z,102283.48
2019-02-05T05:25:11.648Z,102276.48
2019-02-05T05:27:42.235Z,102287.14
2019-02-05T05:30:17.449Z,102278.75
2019-02-05T05:32:47.759Z,102286.44
2019-02-05T05:35:18.301Z,102295.83
2019-02-05T05:37:48.908Z,102287.04
2019-02-05T05:40:19.216Z,102294.29
2019-02-05T05:42:49.483Z,102301.86
2019-02-05T05:45:19.820Z,102304.98
2019-02-05T05:47:50.100Z,102301.59
2019-02-05T05:50:21.321Z,102309.55
2019-02-05T05:52:52.297Z,102311.12
2019-02-05T05:55:22.572Z,102316.01
2019-02-05T05:57:52.859Z,102316.52
2019-02-05T06:00:23.216Z,102323.34
2019-02-05T06:02:53.439Z,102319.76
2019-02-05T06:05:24.025Z,102319.35
2019-02-05T06:07:54.966Z,102319.00
2019-02-05T06:10:25.246Z,102314.91
2019-02-05T06:12:55.542Z,102328.25
2019-02-05T06:15:26.311Z,102324.27
2019-02-05T06:17:56.658Z,102325.11
2019-02-05T06:20:27.580Z,102322.44
2019-02-05T06:22:58.109Z,102322.68
2019-02-05T06:25:28.440Z,102324.91
2019-02-05T06:27:58.691Z,102325.43
2019-02-05T06:30:29.075Z,102342.37
2019-02-05T06:32:59.363Z,102338.52
2019-02-05T06:35:30.027Z,102335.53
2019-02-05T06:38:00.365Z,102348.06
2019-02-05T06:40:30.666Z,102345.84
2019-02-05T06:43:00.941Z,102351.09
2019-02-05T06:45:31.314Z,102353.50
2019-02-05T06:48:01.679Z,102357.23
2019-02-05T06:50:31.934Z,102357.02
2019-02-05T06:53:02.340Z,102360.88
2019-02-05T06:55:32.881Z,102358.44
2019-02-05T06:58:03.197Z,102365.36
2019-02-05T07:00:33.522Z,102367.69
2019-02-05T07:03:03.801Z,102369.22
2019-02-05T07:05:34.551Z,102370.32
2019-02-05T07:08:05.398Z,102373.87
2019-02-05T07:10:35.705Z,102374.27
2019-02-05T07:13:06.279Z,102377.92
2019-02-05T07:15:36.569Z,102367.53
2019-02-05T07:18:07.007Z,102375.64
2019-02-05T07:20:37.946Z,102373.70
2019-02-05T07:23:08.336Z,102383.44
2019-02-05T07:25:38.700Z,102384.89
2019-02-05T07:28:09.404Z,102383.12
2019-02-05T07:30:39.738Z,102391.64
2019-02-05T07:33:10.051Z,102395.84
2019-02-05T07:35:40.810Z,102396.78
2019-02-05T07:38:11.208Z,102409.37
2019-02-05T07:40:42.694Z,102411.42
2019-02-05T07:43:13.443Z,102418.26
2019-02-05T07:45:43.735Z,102418.12
2019-02-05T07:48:14.006Z,102420.77
2019-02-05T07:50:44.534Z,102416.50
2019-02-05T07:53:14.865Z,102431.95
2019-02-05T07:55:45.834Z,102427.28
2019-02-05T07:58:16.317Z,102428.69
2019-02-05T08:00:46.654Z,102432.47
2019-02-05T08:03:17.011Z,102437.47
2019-02-05T08:05:47.450Z,102436.36
2019-02-05T08:08:17.804Z,102439.91
2019-02-05T08:10:48.116Z,102441.17
2019-02-05T08:13:18.472Z,102445.11
2019-02-05T08:15:48.829Z,102446.48
2019-02-05T08:18:19.142Z,102444.04
2019-02-05T08:20:49.539Z,102449.95
2019-02-05T08:23:19.950Z,102448.92
2019-02-05T08:25:50.301Z,102446.75
2019-02-05T08:28:20.573Z,102451.16
2019-02-05T08:30:51.113Z,102452.30
2019-02-05T08:33:21.443Z,102459.09
2019-02-05T08:35:51.851Z,102457.81
2019-02-05T08:38:22.213Z,102454.31
2019-02-05T08:40:52.517Z,102457.54
2019-02-05T08:43:22.819Z,102457.97
2019-02-05T08:45:56.615Z,102463.45
2019-02-05T08:48:25.245Z,102466.05
2019-02-05T08:50:55.623Z,102468.23
2019-02-05T08:53:25.861Z,102470.30
2019-02-05T08:55:56.347Z,102475.09
2019-02-05T08:58:31.091Z,102478.00
2019-02-05T09:00:58.961Z,102478.67
2019-02-05T09:03:29.320Z,102478.77
2019-02-05T09:05:59.694Z,102476.77
2019-02-05T09:08:30.049Z,102486.42
2019-02-05T09:11:00.616Z,102487.83
2019-02-05T09:13:30.856Z,102489.09
2019-02-05T09:16:01.163Z,102487.33
2019-02-05T09:18:31.920Z,102486.20
2019-02-05T09:21:02.231Z,102491.18
2019-02-05T09:23:32.500Z,102490.69
2019-02-05T09:26:02.853Z,102493.69
2019-02-05T09:28:33.216Z,102496.80
2019-02-05T09:31:03.591Z,102503.92
2019-02-05T09:33:33.898Z,102503.89
2019-02-05T09:36:04.164Z,102512.81
2019-02-05T09:38:34.509Z,102512.89
2019-02-05T09:41:04.928Z,102518.23
2019-02-05T09:43:35.302Z,102520.03
2019-02-05T09:46:05.710Z,102525.41
2019-02-05T09:48:36.113Z,102523.05
2019-02-05T09:51:06.653Z,102528.75
2019-02-05T09:53:37.221Z,102531.78
2019-02-05T09:56:07.518Z,102529.14
2019-02-05T09:58:37.883Z,102529.84
2019-02-05T10:01:08.566Z,102534.34
2019-02-05T10:03:38.799Z,102540.97
2019-02-05T10:06:09.222Z,102535.31
2019-02-05T10:08:39.511Z,102540.70
2019-02-05T10:11:09.850Z,102543.28
2019-02-05T10:13:40.192Z,102551.05
2019-02-05T10:16:10.560Z,102554.28
2019-02-05T10:18:45.742Z,102557.12
2019-02-05T10:21:15.852Z,102560.16
2019-02-05T10:23:46.443Z,102565.62
2019-02-05T10:26:16.778Z,102572.47
2019-02-05T10:28:47.168Z,102567.78
2019-02-05T10:31:17.401Z,102567.62
2019-02-05T10:33:54.838Z,102570.86
2019-02-05T10:36:19.823Z,102570.31
2019-02-05T10:38:50.328Z,102575.33
2019-02-05T10:41:20.597Z,102573.53
2019-02-05T10:43:50.996Z,102571.98
2019-02-05T10:46:21.313Z,102572.73
2019-02-05T10:48:51.611Z,102566.88
2019-02-05T10:51:22.463Z,102571.67
2019-02-05T10:53:53.116Z,102559.19
2019-02-05T10:56:23.346Z,102571.40
2019-02-05T10:58:53.688Z,102561.84
2019-02-05T11:01:23.988Z,102562.43
2019-02-05T11:03:54.303Z,102564.98
2019-02-05T11:06:25.046Z,102558.33
2019-02-05T11:08:55.995Z,102548.72
2019-02-05T11:11:26.407Z,102558.34
2019-02-05T11:13:56.760Z,102557.16
2019-02-05T11:16:27.176Z,102556.34
2019-02-05T11:18:58.819Z,102556.45
2019-02-05T11:21:29.446Z,102551.80
2019-02-05T11:24:00.032Z,102555.80
2019-02-05T11:26:30.393Z,102548.34
2019-02-05T11:29:00.782Z,102556.66
2019-02-05T11:31:31.063Z,102554.92
2019-02-05T11:34:01.363Z,102557.96
2019-02-05T11:36:31.822Z,102550.73
2019-02-05T11:39:02.470Z,102557.61
2019-02-05T11:41:32.696Z,102553.20
2019-02-05T11:44:03.024Z,102556.56
2019-02-05T11:46:33.351Z,102549.06
2019-02-05T11:49:03.597Z,102550.02
2019-02-05T11:51:34.018Z,102550.45
2019-02-05T11:54:04.893Z,102553.38
2019-02-05T11:56:35.192Z,102549.32
2019-02-05T11:59:05.614Z,102547.38
2019-02-05T12:01:39.123Z,102549.21
2019-02-05T12:04:08.587Z,102545.72
2019-02-05T12:06:39.196Z,102540.95
2019-02-05T12:09:23.694Z,102538.46
2019-02-05T12:11:54.016Z,102541.68
2019-02-05T12:14:24.486Z,102534.57
2019-02-05T12:16:54.799Z,102531.75
2019-02-05T12:19:25.197Z,102524.32
2019-02-05T12:21:55.967Z,102527.06
2019-02-05T12:24:26.203Z,102532.58
2019-02-05T12:26:56.417Z,102523.48
2019-02-05T12:29:26.771Z,102526.07
2019-02-05T12:31:57.023Z,102530.32
2019-02-05T12:34:27.318Z,102526.13
2019-02-05T12:36:57.911Z,102529.06
2019-02-05T12:39:28.160Z,102525.00
2019-02-05T12:41:58.378Z,102528.80
2019-02-05T12:44:29.043Z,102532.93
2019-02-05T12:46:59.278Z,102537.85
2019-02-05T12:49:29.867Z,102533.45
2019-02-05T12:52:00.605Z,102537.31
2019-02-05T12:54:31.072Z,102539.98
2019-02-05T12:57:01.370Z,102539.48
2019-02-05T12:59:32.283Z,102539.14
2019-02-05T13:02:02.523Z,102535.42
2019-02-05T13:04:32.779Z,102537.17
2019-02-05T13:07:03.150Z,102536.44
2019-02-05T13:09:33.410Z,102541.67
2019-02-05T13:12:04.324Z,102535.83
2019-02-05T13:14:34.772Z,102542.40
2019-02-05T13:17:05.581Z,102544.83
2019-02-05T13:19:35.972Z,102545.18
2019-02-05T13:22:06.262Z,102545.71
2019-02-05T13:24:36.837Z,102545.53
2019-02-05T13:27:07.216Z,102548.25
2019-02-05T13:29:37.419Z,102546.50
2019-02-05T13:32:07.991Z,102552.13
2019-02-05T13:34:38.509Z,102554.32
2019-02-05T13:37:08.783Z,102552.52
2019-02-05T13:39:39.090Z,102550.94
2019-02-05T13:42:09.391Z,102559.42
2019-02-05T13:44:39.707Z,102559.86
2019-02-05T13:47:09.945Z,102560.84
2019-02-05T13:49:40.546Z,102560.50
2019-02-05T13:52:10.915Z,102558.76
2019-02-05T13:54:41.243Z,102566.75
2019-02-05T13:57:11.843Z,102566.61
2019-02-05T13:59:42.403Z,102564.53
2019-02-05T14:02:12.682Z,102564.27
2019-02-05T14:04:43.077Z,102569.52
2019-02-05T14:07:13.703Z,102566.92
2019-02-05T14:09:43.945Z,102565.28
2019-02-05T14:12:14.243Z,102570.19
2019-02-05T14:14:44.629Z,102568.20
2019-02-05T14:17:14.961Z,102565.73
2019-02-05T14:19:45.245Z,102571.90
2019-02-05T14:22:15.610Z,102573.00
2019-02-05T14:24:45.890Z,102572.11
2019-02-05T14:27:16.194Z,102566.61
2019-02-05T14:29:46.513Z,102571.77
2019-02-05T14:32:18.603Z,102569.69
2019-02-05T14:34:48.858Z,102570.98
2019-02-05T14:37:19.269Z,102571.09
2019-02-05T14:39:49.576Z,102568.50
2019-02-05T14:42:20.168Z,102572.86
2019-02-05T14:44:50.595Z,102574.19
2019-02-05T14:47:20.897Z,102574.12
2019-02-05T14:49:51.130Z,102580.52
2019-02-05T14:52:21.471Z,102576.91
2019-02-05T14:54:53.523Z,102580.20
2019-02-05T14:57:23.792Z,102584.02
2019-02-05T14:59:54.451Z,102578.33
2019-02-05T15:02:24.743Z,102584.06
2019-02-05T15:04:54.981Z,102583.20
2019-02-05T15:07:25.382Z,102589.00
2019-02-05T15:09:55.703Z,102587.48
2019-02-05T15:12:26.036Z,102588.23
2019-02-05T15:14:56.512Z,102585.93
2019-02-05T15:17:26.758Z,102592.13
2019-02-05T15:19:58.240Z,102594.06
2019-02-05T15:22:29.328Z,102594.49
2019-02-05T15:25:00.250Z,102594.25
2019-02-05T15:27:30.541Z,102592.86
2019-02-05T15:30:01.082Z,102596.48
2019-02-05T15:32:51.027Z,102594.73
2019-02-05T15:35:21.512Z,102593.29
2019-02-05T15:37:52.101Z,102598.34
2019-02-05T15:40:22.422Z,102595.13
2019-02-05T15:42:53.551Z,102595.51
2019-02-05T15:45:24.357Z,102593.94
2019-02-05T15:47:54.624Z,102593.20
2019-02-05T15:50:25.030Z,102596.88
2019-02-05T15:52:55.347Z,102601.22
2019-02-05T15:55:25.750Z,102599.81
2019-02-05T15:57:56.049Z,102603.07
2019-02-05T16:00:26.779Z,102601.75
2019-02-05T16:02:57.066Z,102599.89
2019-02-05T16:05:27.449Z,102604.06
2019-02-05T16:07:57.750Z,102601.27
2019-02-05T16:10:29.143Z,102608.92
2019-02-05T16:13:02.804Z,102610.13
2019-02-05T16:15:32.711Z,102606.65
2019-02-05T16:18:03.080Z,102612.72
2019-02-05T16:20:33.445Z,102607.63
2019-02-05T16:23:03.786Z,102606.81
2019-02-05T16:25:34.216Z,102609.62
2019-02-05T16:28:04.861Z,102602.81
2019-02-05T16:30:35.118Z,102610.59
2019-02-05T16:33:05.345Z,102608.77
2019-02-05T16:35:35.717Z,102604.72
2019-02-05T16:38:06.470Z,102608.77
2019-02-05T16:40:37.139Z,102613.36
2019-02-05T16:43:07.602Z,102616.05
2019-02-05T16:45:37.864Z,102613.67
2019-02-05T16:48:09.411Z,102623.98
2019-02-05T16:50:43.024Z,102625.17
2019-02-05T16:53:19.717Z,102624.86
2019-02-05T16:55:55.680Z,102625.78
2019-02-05T16:58:31.771Z,102630.91
2019-02-05T17:01:02.239Z,102624.21
2019-02-05T17:03:32.481Z,102622.78
2019-02-05T17:06:02.995Z,102629.94
2019-02-05T17:08:33.286Z,102630.77
2019-02-05T17:11:03.580Z,102635.47
2019-02-05T17:13:34.044Z,102642.30
2019-02-05T17:16:04.432Z,102636.25
2019-02-05T17:18:35.107Z,102641.55
2019-02-05T17:21:06.177Z,102643.94
2019-02-05T17:23:36.629Z,102645.69
2019-02-05T17:26:07.258Z,102650.30
2019-02-05T17:28:37.667Z,102660.03
2019-02-05T17:31:08.105Z,102656.48
2019-02-05T17:33:38.411Z,102661.66
2019-02-05T17:36:08.886Z,102661.09
2019-02-05T17:38:39.178Z,102661.64
2019-02-05T17:41:09.520Z,102658.88
2019-02-05T17:43:40.097Z,102655.50
2019-02-05T17:46:10.586Z,102657.73
2019-02-05T17:48:40.929Z,102659.36
2019-02-05T17:51:11.304Z,102656.64
2019-02-05T17:53:41.653Z,102652.48
2019-02-05T17:56:11.971Z,102659.59
2019-02-05T17:58:42.306Z,102667.13
2019-02-05T18:01:14.299Z,102668.97
2019-02-05T18:03:44.935Z,102668.41
2019-02-05T18:06:15.303Z,102672.89
2019-02-05T18:08:45.805Z,102668.76
2019-02-05T18:11:17.319Z,102674.33
2019-02-05T18:13:49.062Z,102676.93
2019-02-05T18:16:21.117Z,102680.02
2019-02-05T18:18:51.685Z,102676.67
2019-02-05T18:21:22.035Z,102682.40
2019-02-05T18:23:52.286Z,102678.81
2019-02-05T18:26:23.177Z,102672.98
2019-02-05T18:28:53.507Z,102676.23
2019-02-05T18:31:23.736Z,102676.38
2019-02-05T18:33:54.108Z,102678.50
2019-02-05T18:36:24.676Z,102676.52
2019-02-05T18:38:55.317Z,102679.88
2019-02-05T18:41:25.667Z,102681.81
2019-02-05T18:43:55.957Z,102678.38
2019-02-05T18:46:26.242Z,102683.27
2019-02-05T18:49:04.674Z,102679.22
2019-02-05T18:51:28.612Z,102680.33
2019-02-05T18:54:00.167Z,102673.46
2019-02-05T18:56:30.528Z,102672.24
2019-02-05T18:59:00.828Z,102671.39
2019-02-05T19:01:31.086Z,102674.34
2019-02-05T19:04:01.713Z,102674.05
2019-02-05T19:06:31.917Z,102673.86
2019-02-05T19:09:02.258Z,102673.72
2019-02-05T19:11:33.017Z,102672.46
2019-02-05T19:14:04.202Z,102671.09
2019-02-05T19:16:34.844Z,102672.37
2019-02-05T19:19:14.667Z,102670.59
2019-02-05T19:21:37.736Z,102669.56
2019-02-05T19:24:26.893Z,102673.20
2019-02-05T19:26:57.500Z,102671.07
2019-02-05T19:29:27.733Z,102671.30
2019-02-05T19:31:58.037Z,102671.38
2019-02-05T19:34:28.552Z,102672.98
2019-02-05T19:36:58.821Z,102676.77
2019-02-05T19:39:29.123Z,102675.27
2019-02-05T19:41:59.433Z,102682.53
2019-02-05T19:44:35.577Z,102682.40
2019-02-05T19:47:09.001Z,102678.53
2019-02-05T19:49:45.228Z,102673.22
2019-02-05T19:52:15.488Z,102680.73
2019-02-05T19:54:45.811Z,102682.16
2019-02-05T19:57:16.111Z,102688.39
2019-02-05T19:59:46.709Z,102688.63
2019-02-05T20:02:16.953Z,102684.03
2019-02-05T20:04:47.475Z,102686.83
2019-02-05T20:07:17.778Z,102683.88
2019-02-05T20:09:48.105Z,102692.40
2019-02-05T20:12:18.437Z,102691.17
2019-02-05T20:14:48.903Z,102694.42
2019-02-05T20:17:19.255Z,102691.56
2019-02-05T20:19:49.887Z,102691.84
2019-02-05T20:22:21.620Z,102690.61
2019-02-05T20:24:52.206Z,102698.55
2019-02-05T20:27:22.414Z,102690.94
2019-02-05T20:29:52.717Z,102694.06
2019-02-05T20:32:23.007Z,102688.96
2019-02-05T20:34:55.410Z,102687.03
2019-02-05T20:37:26.055Z,102694.84
2019-02-05T20:39:56.290Z,102695.93
2019-02-05T20:42:26.904Z,102692.99
2019-02-05T20:44:57.649Z,102693.36
2019-02-05T20:47:27.984Z,102694.99
2019-02-05T20:49:58.299Z,102692.80
2019-02-05T20:52:28.666Z,102694.16
2019-02-05T20:54:59.447Z,102695.33
2019-02-05T20:57:29.733Z,102694.53
2019-02-05T21:00:00.048Z,102695.47
2019-02-05T21:02:30.262Z,102699.81
2019-02-05T21:05:00.447Z,102693.72
2019-02-05T21:07:30.952Z,102691.52
2019-02-05T21:10:01.315Z,102692.03
2019-02-05T21:12:31.750Z,102699.44
2019-02-05T21:15:02.057Z,102700.38
2019-02-05T21:17:33.035Z,102701.92
2019-02-05T21:20:03.581Z,102706.02
2019-02-05T21:22:33.901Z,102707.70
2019-02-05T21:25:04.485Z,102709.69
2019-02-05T21:27:35.206Z,102712.87
2019-02-05T21:30:08.615Z,102713.78
2019-02-05T21:32:38.899Z,102710.42
2019-02-05T21:35:10.297Z,102703.72
2019-02-05T21:37:40.607Z,102709.77
2019-02-05T21:40:18.687Z,102704.22
2019-02-05T21:42:49.306Z,102709.64
2019-02-05T21:45:21.575Z,102715.22
2019-02-05T21:47:51.927Z,102713.66
2019-02-05T21:50:23.438Z,102715.97
2019-02-05T21:52:53.847Z,102718.83
2019-02-05T21:55:24.117Z,102716.61
2019-02-05T21:57:54.553Z,102713.30
2019-02-05T22:00:30.160Z,102716.92
2019-02-05T22:03:00.584Z,102711.31
2019-02-05T22:05:31.128Z,102708.78
2019-02-05T22:08:02.247Z,102714.70
2019-02-05T22:10:32.566Z,102700.94
2019-02-05T22:13:03.188Z,102711.59
2019-02-05T22:15:34.031Z,102711.02
2019-02-05T22:18:04.420Z,102711.16
2019-02-05T22:20:35.094Z,102711.55
2019-02-05T22:23:05.531Z,102714.55
2019-02-05T22:25:35.828Z,102716.69
2019-02-05T22:28:06.600Z,102704.38
2019-02-05T22:30:37.370Z,102712.92
2019-02-05T22:33:08.648Z,102703.58
2019-02-05T22:35:38.969Z,102701.42
2019-02-05T22:38:09.439Z,102701.80
2019-02-05T22:40:39.714Z,102689.83
2019-02-05T22:43:10.370Z,102684.10
2019-02-05T22:45:41.242Z,102679.96
2019-02-05T22:48:11.577Z,102676.73
2019-02-05T22:50:41.813Z,102674.53
2019-02-05T22:53:12.199Z,102670.95
2019-02-05T22:55:42.467Z,102686.39
2019-02-05T22:58:12.790Z,102681.23
2019-02-05T23:01:22.271Z,102677.00
2019-02-05T23:04:04.094Z,102676.52
2019-02-05T23:07:01.514Z,102679.22
2019-02-05T23:10:15.991Z,102681.55
2019-02-05T23:13:11.180Z,102683.44
2019-02-05T23:15:45.712Z,102674.73
2019-02-05T23:18:16.161Z,102684.73
2019-02-05T23:20:46.607Z,102683.73
2019-02-05T23:23:16.909Z,102680.23
2019-02-05T23:25:47.157Z,102681.96
2019-02-05T23:28:17.548Z,102691.09
2019-02-05T23:30:47.785Z,102693.60
2019-02-05T23:33:18.044Z,102697.50
2019-02-05T23:35:48.356Z,102694.57
2019-02-05T23:38:18.926Z,102691.02
2019-02-05T23:40:49.588Z,102685.27
2019-02-05T23:43:19.995Z,102688.97
2019-02-05T23:46:00.989Z,102685.62
2019-02-05T23:48:23.293Z,102699.78
2019-02-05T23:50:53.547Z,102698.91
2019-02-05T23:53:23.860Z,102698.16
2019-02-05T23:55:58.118Z,102694.70
2019-02-05T23:58:30.204Z,102697.11
